Time;durP1;ratioP1;P1;durP2;ratioP2;P2;SDS_P1;SDS_P2;PMS_P1;PMS_P2;Temp;Humidity;BMP_temperature;BMP_pressure;BME280_temperature;BME280_humidity;BME280_pressure;Samples;Min_cycle;Max_cycle;Signal;HPM_P1;HPM_P2
2023/03/02 00:01:49;;;;;;;31.77;19.35;;;;;;;5.06;100.00;100891.09;5052092;28;20029;-71
2023/03/02 00:04:44;;;;;;;28.98;18.38;;;;;;;5.08;100.00;100918.81;5054323;28;20119;-72
2023/03/02 00:07:14;;;;;;;29.23;18.27;;;;;;;5.24;100.00;100943.34;5072034;28;20032;-72
2023/03/02 00:09:41;;;;;;;31.63;18.50;;;;;;;5.33;100.00;100943.41;5043346;28;20045;-71
2023/03/02 00:12:08;;;;;;;35.25;18.15;;;;;;;5.07;100.00;100892.78;5051589;28;20575;-71
2023/03/02 00:14:33;;;;;;;32.05;17.95;;;;;;;5.24;100.00;100920.66;5034055;28;20098;-71
2023/03/02 00:16:58;;;;;;;29.55;18.15;;;;;;;4.98;100.00;100874.22;5051764;28;20029;-72
2023/03/02 00:19:24;;;;;;;30.15;18.90;;;;;;;5.07;100.00;100877.66;5034168;28;20120;-72
2023/03/02 00:21:49;;;;;;;30.45;18.23;;;;;;;5.20;100.00;100923.97;5051708;28;20461;-72
2023/03/02 00:24:15;;;;;;;35.63;18.30;;;;;;;4.83;100.00;100869.06;5051140;28;20036;-72
2023/03/02 00:26:41;;;;;;;28.95;17.77;;;;;;;4.91;100.00;100873.31;5051104;28;20041;-71
2023/03/02 00:29:06;;;;;;;31.65;18.25;;;;;;;4.91;100.00;100885.09;5051760;28;20033;-72
2023/03/02 00:31:32;;;;;;;34.42;18.02;;;;;;;4.90;100.00;100880.88;5052331;28;20041;-72
2023/03/02 00:33:58;;;;;;;31.85;18.80;;;;;;;4.93;100.00;100871.66;5051578;28;20040;-71
2023/03/02 00:36:24;;;;;;;31.48;19.90;;;;;;;5.29;100.00;100917.34;5051401;28;20045;-71
2023/03/02 00:38:53;;;;;;;28.88;17.52;;;;;;;5.22;100.00;100875.28;5051343;28;20025;-72
2023/03/02 00:41:20;;;;;;;31.15;18.48;;;;;;;5.27;100.00;100926.56;5050197;28;20506;-72
2023/03/02 00:43:46;;;;;;;29.33;18.40;;;;;;;5.33;100.00;100914.84;5041838;28;20033;-70
2023/03/02 00:46:14;;;;;;;31.25;18.17;;;;;;;4.77;100.00;100839.63;5051091;28;20108;-72
2023/03/02 00:48:40;;;;;;;32.17;18.27;;;;;;;4.87;100.00;100845.59;5050419;28;20037;-71
2023/03/02 00:51:06;;;;;;;31.15;18.58;;;;;;;5.10;100.00;100880.22;5050618;28;20112;-71
2023/03/02 00:53:33;;;;;;;29.13;18.40;;;;;;;5.27;100.00;100867.72;5051219;28;20021;-71
2023/03/02 00:56:00;;;;;;;30.98;17.27;;;;;;;5.18;100.00;100896.25;5032811;28;20032;-71
2023/03/02 00:58:26;;;;;;;31.25;17.85;;;;;;;4.71;100.00;100761.50;5051247;28;20033;-71
2023/03/02 01:00:52;;;;;;;33.58;18.83;;;;;;;5.25;100.00;100854.28;5051001;28;20102;-71
2023/03/02 01:03:17;;;;;;;34.33;18.27;;;;;;;5.26;100.00;100878.66;5050870;28;20377;-71
2023/03/02 01:05:43;;;;;;;29.38;17.15;;;;;;;5.17;100.00;100865.97;5051042;28;20028;-71
2023/03/02 01:08:08;;;;;;;35.58;19.23;;;;;;;5.04;100.00;100877.66;5033106;28;20036;-72
2023/03/02 01:10:34;;;;;;;30.20;18.60;;;;;;;5.18;100.00;100868.53;5047923;28;20048;-71
2023/03/02 01:13:00;;;;;;;32.90;18.88;;;;;;;4.64;100.00;100796.66;5051821;28;20075;-71
2023/03/02 01:15:25;;;;;;;30.63;18.05;;;;;;;5.16;100.00;100876.91;5051868;28;20043;-71
2023/03/02 01:17:51;;;;;;;33.22;19.33;;;;;;;5.25;100.00;100862.69;5070077;28;20416;-72
2023/03/02 01:20:17;;;;;;;35.65;20.17;;;;;;;4.83;100.00;100832.09;5052359;28;20067;-71
2023/03/02 01:22:43;;;;;;;31.33;18.75;;;;;;;5.03;100.00;100865.88;5049309;28;20483;-72
2023/03/02 01:25:10;;;;;;;31.80;18.80;;;;;;;5.21;100.00;100875.25;5070198;28;20025;-71
2023/03/02 01:27:36;;;;;;;29.17;18.83;;;;;;;4.80;100.00;100824.53;5051938;28;20091;-71
2023/03/02 01:30:02;;;;;;;31.15;19.05;;;;;;;5.18;100.00;100881.13;5069750;28;20418;-71
2023/03/02 01:32:27;;;;;;;27.02;17.88;;;;;;;5.21;100.00;100872.72;5050996;28;20036;-71
2023/03/02 01:34:52;;;;;;;29.67;18.35;;;;;;;5.00;100.00;100830.59;5069702;28;20020;-70
2023/03/02 01:37:19;;;;;;;26.77;17.65;;;;;;;4.89;100.00;100817.03;5069127;28;20039;-72
2023/03/02 01:39:45;;;;;;;26.75;17.90;;;;;;;5.16;100.00;100867.69;5070149;28;20045;-72
2023/03/02 01:42:11;;;;;;;25.98;17.27;;;;;;;4.96;100.00;100813.75;5051396;28;20040;-71
2023/03/02 01:44:39;;;;;;;24.98;17.58;;;;;;;5.26;100.00;100877.00;5069661;28;20308;-71
2023/03/02 01:47:36;;;;;;;28.85;18.27;;;;;;;5.35;100.00;100861.09;5049185;28;20054;-71
2023/03/02 01:50:14;;;;;;;27.77;17.77;;;;;;;5.14;100.00;100866.81;5069474;28;20043;-71
2023/03/02 01:52:39;;;;;;;31.95;18.88;;;;;;;5.07;100.00;100844.09;5070087;28;20020;-71
2023/03/02 01:55:08;;;;;;;30.08;18.63;;;;;;;4.83;100.00;100803.56;5073692;28;20054;-71
2023/03/02 01:57:42;;;;;;;29.60;19.48;;;;;;;4.85;100.00;100795.16;5072587;28;20040;-72
2023/03/02 02:00:11;;;;;;;32.05;19.92;;;;;;;5.03;100.00;100815.47;5073400;28;20020;-71
2023/03/02 02:02:40;;;;;;;36.42;21.20;;;;;;;4.93;100.00;100782.66;5073072;28;20036;-70
2023/03/02 02:05:08;;;;;;;35.25;22.52;;;;;;;4.83;100.00;100756.53;5073363;28;20032;-71
2023/03/02 02:07:34;;;;;;;36.80;21.92;;;;;;;5.12;100.00;100808.00;5073220;28;20036;-71
2023/03/02 02:10:01;;;;;;;32.67;20.80;;;;;;;4.95;100.00;100793.59;5072702;28;20122;-71
2023/03/02 02:12:26;;;;;;;38.72;21.65;;;;;;;5.39;100.00;100855.22;5072818;28;20129;-71
2023/03/02 02:14:53;;;;;;;34.10;21.98;;;;;;;5.38;100.00;100837.56;5073507;28;20055;-71
2023/03/02 02:17:19;;;;;;;34.50;21.48;;;;;;;5.59;100.00;100857.88;5055138;28;20021;-71
2023/03/02 02:19:50;;;;;;;33.15;20.27;;;;;;;5.63;100.00;100869.66;5073311;28;20025;-71
2023/03/02 02:22:25;;;;;;;33.08;21.90;;;;;;;5.04;100.00;100808.78;5072544;28;20691;-71
2023/03/02 02:24:58;;;;;;;33.72;21.92;;;;;;;5.48;100.00;100869.59;5055124;28;20032;-71
2023/03/02 02:27:28;;;;;;;33.78;20.50;;;;;;;5.28;100.00;100819.88;5070442;28;20056;-71
2023/03/02 02:29:57;;;;;;;34.05;20.10;;;;;;;5.42;100.00;100869.53;5072853;28;20033;-71
2023/03/02 02:32:26;;;;;;;32.47;21.48;;;;;;;5.50;100.00;100872.97;5073103;28;20083;-72
2023/03/02 02:35:09;;;;;;;33.05;21.70;;;;;;;5.57;100.00;100872.16;5054522;28;20024;-72
2023/03/02 02:37:41;;;;;;;32.08;21.13;;;;;;;5.41;100.00;100866.16;5054938;28;20426;-71
2023/03/02 02:40:17;;;;;;;35.97;20.70;;;;;;;5.34;100.00;100866.97;5064635;28;20434;-72
2023/03/02 02:42:47;;;;;;;31.00;19.77;;;;;;;5.33;100.00;100819.88;5067379;28;20122;-71
2023/03/02 02:45:22;;;;;;;31.92;20.88;;;;;;;5.49;100.00;100874.63;5072100;28;20024;-71
2023/03/02 02:47:49;;;;;;;33.55;20.70;;;;;;;5.43;100.00;100868.72;5071026;28;20100;-72
2023/03/02 02:50:41;;;;;;;31.38;19.85;;;;;;;5.40;100.00;100867.00;5055347;28;20036;-72
2023/03/02 02:53:17;;;;;;;31.92;19.20;;;;;;;4.95;100.00;100778.47;5069458;28;20048;-71
2023/03/02 02:55:47;;;;;;;30.95;18.90;;;;;;;5.35;100.00;100877.91;5055571;28;20044;-71
2023/03/02 02:58:27;;;;;;;33.83;20.17;;;;;;;5.26;100.00;100884.56;5055365;28;20115;-71
2023/03/02 03:00:53;;;;;;;29.90;19.90;;;;;;;5.39;100.00;100872.06;5055143;28;20032;-72
2023/03/02 03:03:29;;;;;;;34.00;19.70;;;;;;;5.03;100.00;100829.78;5072496;28;20033;-72
2023/03/02 03:05:57;;;;;;;31.83;20.27;;;;;;;5.47;100.00;100870.44;5072960;28;20021;-72
2023/03/02 03:08:48;;;;;;;33.05;20.30;;;;;;;5.54;100.00;100873.00;5073353;28;20025;-72
2023/03/02 03:11:22;;;;;;;35.22;21.75;;;;;;;5.42;100.00;100861.97;5072942;28;20063;-71
2023/03/02 03:13:53;;;;;;;35.88;21.48;;;;;;;5.54;100.00;100873.00;5073243;28;20477;-71
2023/03/02 03:16:19;;;;;;;26.07;16.60;;;;;;;5.04;100.00;100839.84;5054933;28;20174;-72
2023/03/02 03:18:47;;;;;;;35.97;22.10;;;;;;;5.21;100.00;100883.66;5072907;28;20399;-72
2023/03/02 03:21:12;;;;;;;31.85;21.27;;;;;;;4.92;100.00;100821.25;5072923;28;20493;-72
2023/03/02 03:23:37;;;;;;;33.78;21.80;;;;;;;5.39;100.00;100846.84;5054524;28;20119;-72
2023/03/02 03:26:05;;;;;;;34.28;22.40;;;;;;;5.46;100.00;100886.38;5054570;28;20518;-72
2023/03/02 03:28:31;;;;;;;37.72;21.17;;;;;;;5.38;100.00;100883.81;5072773;28;20068;-72
2023/03/02 03:30:57;;;;;;;34.17;21.83;;;;;;;4.99;100.00;100812.94;5053160;28;20473;-71
2023/03/02 03:33:22;;;;;;;36.38;21.52;;;;;;;5.22;100.00;100822.34;5054998;28;20037;-72
2023/03/02 03:35:48;;;;;;;34.80;22.10;;;;;;;5.34;100.00;100879.56;5071861;28;20045;-72
2023/03/02 03:38:13;;;;;;;31.98;20.73;;;;;;;5.70;100.00;100882.34;5073004;28;20032;-72
2023/03/02 03:40:39;;;;;;;34.72;22.52;;;;;;;5.15;100.00;100832.38;5072966;28;20570;-72
2023/03/02 03:43:04;;;;;;;32.28;20.75;;;;;;;5.34;100.00;100881.25;5072460;28;20024;-72
2023/03/02 03:45:30;;;;;;;36.90;21.85;;;;;;;5.31;100.00;100836.69;5072159;28;20123;-72
2023/03/02 03:47:55;;;;;;;33.70;21.35;;;;;;;4.71;100.00;100791.72;5054708;28;20411;-72
2023/03/02 03:50:21;;;;;;;34.28;22.88;;;;;;;5.27;100.00;100860.19;5054098;28;20461;-72
2023/03/02 03:52:47;;;;;;;34.35;21.70;;;;;;;5.50;100.00;100878.84;5054780;28;20033;-72
2023/03/02 03:55:14;;;;;;;35.45;22.40;;;;;;;5.44;100.00;100870.41;5071844;28;20541;-72
2023/03/02 03:57:40;;;;;;;38.90;23.80;;;;;;;4.90;100.00;100813.69;5072086;28;20105;-72
2023/03/02 04:00:09;;;;;;;36.92;22.88;;;;;;;5.04;100.00;100851.59;5054136;28;20479;-72
2023/03/02 04:02:37;;;;;;;37.55;23.38;;;;;;;4.79;100.00;100816.97;5089457;28;20028;-72
2023/03/02 04:05:05;;;;;;;36.22;23.27;;;;;;;5.11;100.00;100861.72;5075921;28;20035;-72
2023/03/02 04:07:35;;;;;;;42.38;23.45;;;;;;;4.99;100.00;100863.31;5071968;28;20111;-72
2023/03/02 04:10:04;;;;;;;36.70;23.50;;;;;;;5.20;100.00;100834.09;5071784;28;20043;-72
2023/03/02 04:12:34;;;;;;;36.67;22.40;;;;;;;4.88;100.00;100827.97;5072225;28;20085;-72
2023/03/02 04:15:01;;;;;;;38.63;23.77;;;;;;;5.32;100.00;100858.56;5071375;28;20495;-72
2023/03/02 04:17:27;;;;;;;35.70;23.02;;;;;;;5.10;100.00;100870.16;5071735;28;20039;-72
2023/03/02 04:19:53;;;;;;;40.08;24.05;;;;;;;5.31;100.00;100877.00;5054251;28;20029;-71
2023/03/02 04:22:20;;;;;;;36.55;22.58;;;;;;;5.48;100.00;100879.66;5087405;28;20086;-72
2023/03/02 04:24:46;;;;;;;38.15;23.75;;;;;;;4.93;100.00;100828.81;5071477;28;20029;-72
2023/03/02 04:27:13;;;;;;;34.85;22.58;;;;;;;5.57;100.00;100884.75;5052067;28;20035;-72
2023/03/02 04:29:39;;;;;;;36.65;23.05;;;;;;;5.60;100.00;100894.88;5039892;28;20029;-71
2023/03/02 04:32:05;;;;;;;34.10;22.70;;;;;;;6.39;100.00;100833.06;5066147;28;20506;-71
2023/03/02 04:34:30;;;;;;;27.60;18.08;;;;;;;7.78;100.00;100852.41;5071563;28;20112;-73
2023/03/02 04:36:56;;;;;;;30.92;19.88;;;;;;;7.13;100.00;100836.50;5050719;28;20039;-70
2023/03/02 04:39:22;;;;;;;38.35;24.40;;;;;;;5.55;100.00;100866.25;5051264;28;20104;-70
2023/03/02 04:41:48;;;;;;;32.80;21.80;;;;;;;6.46;100.00;100891.16;5050497;28;20029;-72
2023/03/02 04:44:15;;;;;;;38.10;23.90;;;;;;;5.10;100.00;100827.31;5033344;28;20029;-71
2023/03/02 04:46:41;;;;;;;35.25;23.10;;;;;;;5.41;100.00;100840.13;5051491;28;20037;-71
2023/03/02 04:49:06;;;;;;;34.50;23.10;;;;;;;5.31;100.00;100816.50;5051292;28;20043;-71
2023/03/02 04:51:39;;;;;;;38.55;22.98;;;;;;;5.25;100.00;100847.56;5055666;28;20094;-73
2023/03/02 04:54:09;;;;;;;32.95;22.30;;;;;;;5.25;100.00;100872.78;5052693;28;20036;-72
2023/03/02 04:56:35;;;;;;;34.05;23.13;;;;;;;5.21;100.00;100837.44;5071685;28;20047;-72
2023/03/02 04:59:00;;;;;;;37.40;23.88;;;;;;;5.34;100.00;100849.31;5070596;28;20410;-73
2023/03/02 05:01:26;;;;;;;36.00;23.75;;;;;;;5.10;100.00;100861.72;5053456;28;20451;-75
2023/03/02 05:03:52;;;;;;;44.55;23.42;;;;;;;5.21;100.00;100881.13;5070351;28;20044;-74
2023/03/02 05:06:23;;;;;;;35.00;23.40;;;;;;;5.40;100.00;100853.56;5053059;28;20024;-74
2023/03/02 05:08:50;;;;;;;;;;;;;;;5.36;100.00;100889.66;5050543;28;20041;-77
2023/03/02 05:11:25;;;;;;;36.00;22.80;;;;;;;5.42;100.00;100894.75;5033225;28;19924;-76
2023/03/02 05:13:55;;;;;;;36.40;23.73;;;;;;;5.21;100.00;100858.47;5050684;28;20037;-78
2023/03/02 05:16:21;;;;;;;36.90;22.92;;;;;;;5.40;100.00;100909.88;5051085;28;20064;-76
2023/03/02 05:18:47;;;;;;;35.65;22.88;;;;;;;5.35;100.00;100919.06;5051076;28;20064;-74
2023/03/02 05:21:13;;;;;;;34.92;22.65;;;;;;;5.51;100.00;100905.75;5032555;28;20040;-74
2023/03/02 05:23:41;;;;;;;38.58;24.85;;;;;;;5.56;100.00;100918.41;5050870;28;20123;-74
2023/03/02 05:26:06;;;;;;;42.17;26.70;;;;;;;5.53;100.00;100921.72;5050722;28;20418;-72
2023/03/02 05:28:32;;;;;;;37.60;24.42;;;;;;;5.54;100.00;100930.16;5054687;28;20033;-72
2023/03/02 05:30:57;;;;;;;36.70;24.02;;;;;;;4.95;100.00;100864.13;5054863;28;20112;-75
2023/03/02 05:33:23;;;;;;;37.67;24.20;;;;;;;5.41;100.00;100916.59;5055011;28;20531;-73
2023/03/02 05:35:48;;;;;;;40.25;26.95;;;;;;;5.28;100.00;100877.84;5032693;28;20029;-74
2023/03/02 05:38:14;;;;;;;40.65;25.67;;;;;;;5.54;100.00;100927.63;5034925;28;20033;-74
2023/03/02 05:40:43;;;;;;;39.05;24.95;;;;;;;5.02;100.00;100874.28;5034789;28;20036;-74
2023/03/02 05:43:12;;;;;;;38.95;23.58;;;;;;;5.42;100.00;100930.03;5034957;28;20036;-74
2023/03/02 05:45:38;;;;;;;40.03;24.38;;;;;;;5.28;100.00;100918.19;5049801;28;20037;-74
2023/03/02 05:48:04;;;;;;;36.15;24.15;;;;;;;4.94;100.00;100864.94;5052593;28;20059;-75
2023/03/02 05:50:30;;;;;;;42.58;24.38;;;;;;;5.94;100.00;100917.84;5053951;28;20064;-73
2023/03/02 05:52:57;;;;;;;35.10;23.90;;;;;;;5.44;100.00;100898.13;5035879;28;20517;-75
2023/03/02 05:55:23;;;;;;;41.63;23.98;;;;;;;5.56;100.00;100928.47;5053562;28;20036;-74
2023/03/02 05:57:48;;;;;;;37.05;23.55;;;;;;;5.38;100.00;100903.97;5036065;28;20082;-74
2023/03/02 06:00:16;;;;;;;36.47;23.77;;;;;;;5.43;100.00;100936.78;5053455;28;20674;-74
2023/03/02 06:02:42;;;;;;;37.38;24.17;;;;;;;5.27;100.00;100882.88;5054699;28;20110;-74
2023/03/02 06:05:10;;;;;;;37.17;23.88;;;;;;;5.71;100.00;100929.44;5054795;28;20499;-74
2023/03/02 06:07:35;;;;;;;39.50;24.27;;;;;;;5.14;100.00;100869.34;5054290;28;20037;-74
2023/03/02 06:10:01;;;;;;;42.50;24.48;;;;;;;5.41;100.00;100926.66;5067062;28;20052;-74
2023/03/02 06:12:27;;;;;;;36.63;23.80;;;;;;;5.45;100.00;100943.50;5073831;28;20036;-74
2023/03/02 06:14:52;;;;;;;42.95;24.95;;;;;;;5.10;100.00;100882.75;5055721;28;20025;-74
2023/03/02 06:17:18;;;;;;;40.83;25.35;;;;;;;5.15;100.00;100881.09;5073398;28;20035;-73
2023/03/02 06:19:43;;;;;;;41.83;26.70;;;;;;;5.40;100.00;100934.22;5055288;28;20073;-75
2023/03/02 06:22:08;;;;;;;44.97;27.98;;;;;;;5.31;100.00;100927.44;5074132;28;20025;-74
2023/03/02 06:24:34;;;;;;;44.88;27.73;;;;;;;5.32;100.00;100925.75;5074321;28;20119;-75
2023/03/02 06:26:59;;;;;;;44.08;25.75;;;;;;;5.11;100.00;100908.78;5056244;28;20411;-75
2023/03/02 06:29:25;;;;;;;42.47;25.58;;;;;;;4.93;100.00;100883.44;5074439;28;20020;-73
2023/03/02 06:31:50;;;;;;;43.17;26.08;;;;;;;4.79;100.00;100868.19;5056143;28;20032;-74
2023/03/02 06:34:16;;;;;;;41.78;27.67;;;;;;;5.32;100.00;100935.84;5074376;28;20051;-74
2023/03/02 06:36:41;;;;;;;47.28;27.30;;;;;;;5.20;100.00;100929.03;5073654;28;20048;-74
2023/03/02 06:39:14;;;;;;;45.53;28.02;;;;;;;4.87;100.00;100878.31;5055249;28;20029;-72
2023/03/02 06:41:41;;;;;;;46.03;28.13;;;;;;;5.17;100.00;100944.94;5055909;28;20047;-74
2023/03/02 06:44:06;;;;;;;46.15;28.90;;;;;;;5.33;100.00;100940.06;5073638;28;20031;-73
2023/03/02 06:46:32;;;;;;;43.00;27.83;;;;;;;5.00;100.00;100886.00;5072793;28;20037;-74
2023/03/02 06:48:57;;;;;;;46.35;28.30;;;;;;;5.12;100.00;100880.22;5073741;28;20036;-74
2023/03/02 06:51:22;;;;;;;44.67;27.83;;;;;;;5.31;100.00;100939.22;5073183;28;20411;-74
2023/03/02 06:53:48;;;;;;;41.78;26.35;;;;;;;5.10;100.00;100905.41;5073743;28;20033;-74
2023/03/02 06:56:13;;;;;;;45.45;26.63;;;;;;;5.07;100.00;100910.41;5073362;28;20123;-74
2023/03/02 06:58:39;;;;;;;44.08;26.50;;;;;;;5.22;100.00;100934.91;5073209;28;20029;-74
2023/03/02 07:01:06;;;;;;;47.70;28.85;;;;;;;4.97;100.00;100882.63;5073086;28;20036;-74
2023/03/02 07:03:32;;;;;;;49.03;29.50;;;;;;;5.17;100.00;100909.66;5073578;28;20232;-74
2023/03/02 07:05:57;;;;;;;46.55;28.85;;;;;;;5.29;100.00;100932.47;5055585;28;20396;-74
2023/03/02 07:08:22;;;;;;;48.50;29.13;;;;;;;5.34;100.00;100945.13;5073102;28;20086;-74
2023/03/02 07:10:48;;;;;;;56.45;35.30;;;;;;;5.03;100.00;100887.72;5072729;28;20036;-74
2023/03/02 07:13:13;;;;;;;49.72;31.83;;;;;;;5.22;100.00;100938.28;5072986;28;20490;-74
2023/03/02 07:15:39;;;;;;;56.67;41.63;;;;;;;5.28;100.00;100945.06;5055234;28;20067;-74
2023/03/02 07:18:05;;;;;;;53.00;36.95;;;;;;;5.19;100.00;100935.72;5073460;28;20043;-75
2023/03/02 07:20:30;;;;;;;57.53;37.67;;;;;;;5.11;100.00;100903.75;5055575;28;20352;-74
2023/03/02 07:22:56;;;;;;;53.95;36.22;;;;;;;5.05;100.00;100891.91;5073128;28;20028;-75
2023/03/02 07:25:22;;;;;;;63.25;41.03;;;;;;;5.47;100.00;100954.47;5072950;28;20111;-75
2023/03/02 07:27:48;;;;;;;59.95;40.05;;;;;;;5.20;100.00;100919.78;5055418;28;20406;-74
2023/03/02 07:30:14;;;;;;;48.75;34.28;;;;;;;5.05;100.00;100913.78;5073225;28;20470;-74
2023/03/02 07:32:40;;;;;;;44.67;27.30;;;;;;;5.26;100.00;100952.63;5055214;28;20033;-74
2023/03/02 07:35:05;;;;;;;41.75;26.17;;;;;;;5.09;100.00;100898.66;5072472;28;20040;-76
2023/03/02 07:37:31;;;;;;;42.72;25.85;;;;;;;4.97;100.00;100913.69;5072000;28;20044;-74
2023/03/02 07:39:56;;;;;;;41.88;26.67;;;;;;;5.22;100.00;100909.72;5072789;28;20052;-75
2023/03/02 07:42:22;;;;;;;47.22;28.65;;;;;;;5.45;100.00;100955.31;5054642;28;20029;-75
2023/03/02 07:44:47;;;;;;;43.70;27.88;;;;;;;5.43;100.00;100962.81;5054781;28;20086;-74
2023/03/02 07:47:13;;;;;;;38.83;26.23;;;;;;;5.00;100.00;100865.84;5072397;28;20028;-75
2023/03/02 07:49:38;;;;;;;44.58;26.65;;;;;;;5.41;100.00;100951.06;5072376;28;20069;-75
2023/03/02 07:52:04;;;;;;;38.55;25.73;;;;;;;5.36;100.00;100900.59;5072872;28;20033;-75
2023/03/02 07:54:30;;;;;;;37.20;25.77;;;;;;;5.71;100.00;100974.84;5072783;28;20406;-75
2023/03/02 07:56:57;;;;;;;38.47;25.35;;;;;;;5.41;100.00;100915.75;5071940;28;20032;-74
2023/03/02 07:59:23;;;;;;;38.10;25.48;;;;;;;5.38;100.00;100903.97;5072695;28;20021;-75
2023/03/02 08:01:48;;;;;;;39.25;25.75;;;;;;;5.64;100.00;100957.13;5070850;28;20200;-74
2023/03/02 08:04:14;;;;;;;37.08;27.00;;;;;;;5.76;100.00;100953.03;5071536;28;20475;-74
2023/03/02 08:06:39;;;;;;;44.97;26.52;;;;;;;5.53;100.00;100896.50;5072119;28;20522;-75
2023/03/02 08:09:04;;;;;;;39.00;25.90;;;;;;;5.43;100.00;100893.94;5077868;28;20048;-75
2023/03/02 08:11:30;;;;;;;42.95;27.33;;;;;;;5.64;100.00;100916.78;5092841;28;20024;-75
2023/03/02 08:13:59;;;;;;;37.30;24.35;;;;;;;5.56;100.00;100949.50;5074326;28;20024;-75
2023/03/02 08:16:25;;;;;;;39.15;24.88;;;;;;;5.60;100.00;100948.69;5092310;28;20078;-75
2023/03/02 08:18:50;;;;;;;37.63;24.60;;;;;;;5.62;100.00;100926.84;5091280;28;20024;-74
2023/03/02 08:21:18;;;;;;;37.75;24.75;;;;;;;5.91;100.00;100939.69;5074512;28;20020;-75
2023/03/02 08:23:44;;;;;;;36.45;24.42;;;;;;;5.32;100.00;100886.28;5092595;28;20107;-75
2023/03/02 08:26:11;;;;;;;37.40;25.15;;;;;;;5.37;100.00;100848.50;5092544;28;20039;-76
2023/03/02 08:28:37;;;;;;;45.60;26.17;;;;;;;5.59;100.00;100903.28;5091042;28;20426;-75
2023/03/02 08:31:03;;;;;;;38.28;24.92;;;;;;;5.74;100.00;100939.56;5092232;28;20043;-75
2023/03/02 08:33:29;;;;;;;38.22;24.77;;;;;;;5.61;100.00;100936.91;5091848;28;20024;-76
2023/03/02 08:36:11;;;;;;;37.42;25.10;;;;;;;5.69;100.00;100945.38;5074182;28;20020;-75
2023/03/02 08:38:37;;;;;;;32.15;22.35;;;;;;;5.59;100.00;100933.53;5091134;28;20020;-75
2023/03/02 08:41:05;;;;;;;37.17;24.02;;;;;;;5.34;100.00;100872.00;5091712;28;20077;-76
2023/03/02 08:43:31;;;;;;;36.22;24.15;;;;;;;5.39;100.00;100879.63;5073909;28;20020;-75
2023/03/02 08:45:59;;;;;;;29.52;21.30;;;;;;;5.59;100.00;100928.50;5092106;28;20192;-76
2023/03/02 08:48:26;;;;;;;35.97;24.27;;;;;;;5.97;100.00;100922.91;5090885;28;20042;-76
2023/03/02 08:50:55;;;;;;;34.15;23.17;;;;;;;5.80;100.00;100938.75;5072396;28;20040;-77
2023/03/02 08:53:21;;;;;;;32.03;23.00;;;;;;;5.79;100.00;100927.81;5071265;28;20032;-76
2023/03/02 08:55:47;;;;;;;34.28;23.30;;;;;;;5.28;100.00;100824.06;5053656;28;20403;-77
2023/03/02 08:58:12;;;;;;;36.35;24.05;;;;;;;6.13;100.00;100923.84;5070541;28;20035;-76
2023/03/02 09:00:37;;;;;;;33.55;23.45;;;;;;;5.91;100.00;100920.34;5070783;28;20035;-76
2023/03/02 09:03:03;;;;;;;34.20;23.02;;;;;;;5.87;100.00;100930.41;5060024;28;20119;-76
2023/03/02 09:05:30;;;;;;;30.95;22.95;;;;;;;5.80;100.00;100886.59;5077776;28;20055;-76
2023/03/02 09:07:55;;;;;;;31.23;21.52;;;;;;;5.95;100.00;100921.19;5078533;28;20020;-75
2023/03/02 09:10:20;;;;;;;31.42;22.92;;;;;;;5.80;100.00;100863.88;5078057;28;20048;-76
2023/03/02 09:12:46;;;;;;;34.13;22.60;;;;;;;5.64;100.00;100868.84;5060631;28;20498;-76
2023/03/02 09:15:11;;;;;;;33.35;22.60;;;;;;;5.58;100.00;100821.75;5060082;28;20040;-74
2023/03/02 09:17:37;;;;;;;33.30;22.23;;;;;;;6.11;100.00;100908.69;5060159;28;20035;-75
2023/03/02 09:20:02;;;;;;;31.58;21.98;;;;;;;6.27;100.00;100916.31;5078004;28;20028;-74
2023/03/02 09:22:30;;;;;;;31.65;22.60;;;;;;;6.11;100.00;100916.25;5077370;28;20043;-75
2023/03/02 09:24:55;;;;;;;35.63;22.70;;;;;;;5.89;100.00;100890.88;5078097;28;20032;-75
2023/03/02 09:27:20;;;;;;;32.88;22.77;;;;;;;5.64;100.00;100847.00;5077885;28;20115;-75
2023/03/02 09:29:46;;;;;;;38.78;25.00;;;;;;;5.90;100.00;100900.16;5077957;28;20024;-75
2023/03/02 09:32:12;;;;;;;35.03;24.02;;;;;;;6.08;100.00;100890.16;5078095;28;20013;-74
2023/03/02 09:34:38;;;;;;;32.03;22.38;;;;;;;5.52;100.00;100825.91;5078176;28;20025;-74
2023/03/02 09:37:03;;;;;;;35.50;23.88;;;;;;;5.57;100.00;100826.75;5059425;28;20039;-73
2023/03/02 09:39:29;;;;;;;32.78;23.17;;;;;;;5.94;100.00;100889.25;5078030;28;20121;-74
2023/03/02 09:41:54;;;;;;;31.88;23.05;;;;;;;6.08;100.00;100892.69;5060026;28;20032;-74
2023/03/02 09:44:28;;;;;;;35.63;23.92;;;;;;;6.19;100.00;100880.09;5077939;28;20463;-75
2023/03/02 09:47:12;;;;;;;29.40;22.13;;;;;;;6.02;100.00;100842.19;5077825;28;20486;-75
2023/03/02 09:49:56;;;;;;;30.17;21.42;;;;;;;6.03;100.00;100846.38;5059668;28;20190;-74
2023/03/02 09:52:35;;;;;;;29.30;20.90;;;;;;;6.17;100.00;100854.84;5060188;28;20094;-75
2023/03/02 09:55:15;;;;;;;33.15;22.55;;;;;;;6.31;100.00;100817.03;5059669;28;20025;-76
2023/03/02 09:57:41;;;;;;;28.67;20.23;;;;;;;6.52;100.00;100847.38;5077472;28;20031;-74
2023/03/02 10:00:27;;;;;;;31.73;21.48;;;;;;;6.37;100.00;100853.25;5059561;28;20031;-75
2023/03/02 10:03:00;;;;;;;28.42;20.80;;;;;;;6.26;100.00;100854.06;5059879;28;20046;-75
2023/03/02 10:05:39;;;;;;;29.35;22.55;;;;;;;6.27;100.00;100818.72;5060135;28;20032;-75
2023/03/02 10:08:11;;;;;;;29.95;21.75;;;;;;;6.26;100.00;100801.03;5060009;28;20495;-75
2023/03/02 10:10:51;;;;;;;32.25;21.65;;;;;;;6.19;100.00;100812.78;5077264;28;20048;-76
2023/03/02 10:13:24;;;;;;;33.13;21.73;;;;;;;6.47;100.00;100832.25;5075317;28;20033;-75
2023/03/02 10:15:58;;;;;;;33.15;21.88;;;;;;;6.78;100.00;100854.19;4719888;28;10000512;-74
2023/03/02 10:18:45;;;;;;;33.17;22.60;;;;;;;6.71;100.00;100844.06;5055508;28;20047;-74
2023/03/02 10:21:26;;;;;;;27.17;19.45;;;;;;;6.44;100.00;100851.59;5054966;28;20036;-74
2023/03/02 10:24:25;;;;;;;27.67;19.65;;;;;;;6.65;100.00;100846.59;5055822;28;20201;-75
2023/03/02 10:26:58;;;;;;;29.15;19.85;;;;;;;6.70;100.00;100799.41;5074071;28;20021;-76
2023/03/02 10:29:42;;;;;;;41.80;23.73;;;;;;;6.85;100.00;100842.41;5056143;28;20067;-73
2023/03/02 10:32:18;;;;;;;33.70;20.75;;;;;;;7.09;100.00;100841.56;5073180;28;20035;-75
2023/03/02 10:34:49;;;;;;;32.95;21.63;;;;;;;6.81;100.00;100836.47;5073716;28;20025;-75
2023/03/02 10:37:23;;;;;;;28.33;20.15;;;;;;;6.71;100.00;100833.97;5056042;28;20028;-75
2023/03/02 10:39:50;;;;;;;29.95;20.77;;;;;;;6.75;100.00;100823.03;5055622;28;20040;-77
2023/03/02 10:42:33;;;;;;;28.90;20.38;;;;;;;6.86;100.00;100828.91;5070244;28;20051;-74
2023/03/02 10:45:13;;;;;;;27.02;19.42;;;;;;;6.73;100.00;100766.59;5062581;28;20043;-73
2023/03/02 10:47:39;;;;;;;28.27;20.20;;;;;;;6.83;100.00;100817.13;5053217;28;20021;-72
2023/03/02 10:50:20;;;;;;;29.40;19.90;;;;;;;6.54;100.00;100785.94;5052817;28;20037;-73
2023/03/02 10:52:51;;;;;;;27.92;19.52;;;;;;;6.32;100.00;100756.44;5036181;28;20029;-72
2023/03/02 10:55:16;;;;;;;31.27;19.63;;;;;;;6.50;100.00;100769.09;5053515;28;20112;-73
2023/03/02 10:57:44;;;;;;;31.40;20.60;;;;;;;6.42;100.00;100757.31;5053406;28;20116;-72
2023/03/02 11:00:10;;;;;;;26.60;20.00;;;;;;;6.69;100.00;100802.81;5053852;28;20032;-73
2023/03/02 11:02:37;;;;;;;31.40;20.45;;;;;;;6.61;100.00;100792.69;5053835;28;20070;-72
2023/03/02 11:05:28;;;;;;;30.13;20.00;;;;;;;6.80;100.00;100801.97;5052908;28;20025;-72
2023/03/02 11:07:59;;;;;;;26.92;18.63;;;;;;;6.28;100.00;100746.34;5053434;28;20029;-72
2023/03/02 11:10:36;;;;;;;28.33;19.45;;;;;;;6.49;100.00;100754.78;5053865;28;20080;-74
2023/03/02 11:13:16;;;;;;;28.52;20.25;;;;;;;6.79;100.00;100780.03;5053622;28;20094;-72
2023/03/02 11:15:44;;;;;;;29.25;21.23;;;;;;;6.71;100.00;100743.00;5035949;28;20082;-73